Главная страница
METAR-TAF:

METAR-TAF

Аэропорты :

Рёст, Норвегия

широта: 67-31N, долгота: 012-06E, высота над уровнем моря: 4 м

Текущие метеонаблюдения

Эта сводка был подготовлена 22 минут назад, в 19:50 UTC
Ветер 16 Узел от северо-северо-восточный
Температура 10°C
Влажность 87%
Давление 1013 hPa
Видимость 10 км и более

METAR: ENRS 131950Z AUTO 02016KT 9999 NCD 10/08 Q1013

Время: 22:12 (20:12 UTC)

Прогноз

Эта сводка был подготовлена 9 часа и 12 минут назад, в 11:00 UTC
Прогноз действительный с 13-го 12 UTC до 13-го 20 UTC
Ветер 18 Узел от северо-северо-восточный
Видимость 10 км и более
небольшая облачность на высоте 1800 фута

TAF: ENRS 131100Z 1312/1320 03018KT 9999 FEW018

Метеонаблюдения и прогнозы для более 4000 аэропортов (сводки METAR и TAF).

Имеющиеся станции представлены на карте желтыми и красными точками.

Чтобы увидеть название станции, наведите на нее мышь.

Затем щелкните, чтобы увидеть метеонаблюдения и метеопрогнозы.

Управление картой: чтобы увеличить масштаб, щелкните зеленые кнопки с черным крестиком; чтобы уменьшить масштаб, щелкните зеленую кнопку с тире; для просмотра соседних карт щелкайте зеленые стрелки.


METAR-TAF: